Time;durP1;ratioP1;P1;durP2;ratioP2;P2;SDS_P1;SDS_P2;PMS_P1;PMS_P2;Temp;Humidity;BMP_temperature;BMP_pressure;BME280_temperature;BME280_humidity;BME280_pressure;Samples;Min_cycle;Max_cycle;Signal;HPM_P1;HPM_P2
2022/01/08 00:00:25;;;;;;;3.50;3.20;;;;;;;6.62;53.39;95109.84;5032858;28;20059;-62
2022/01/08 00:02:51;;;;;;;4.65;3.42;;;;;;;5.99;53.86;95043.84;5051412;28;20076;-62
2022/01/08 00:05:17;;;;;;;3.67;3.38;;;;;;;5.96;53.69;95068.94;5050990;28;20059;-64
2022/01/08 00:07:42;;;;;;;3.67;3.28;;;;;;;5.81;53.83;95070.88;5032434;28;20028;-64
2022/01/08 00:10:08;;;;;;;3.13;2.92;;;;;;;5.24;55.46;95067.00;5032312;28;20025;-63
2022/01/08 00:12:33;;;;;;;3.67;3.38;;;;;;;5.86;55.30;95079.53;5050983;28;20029;-64
2022/01/08 00:14:59;;;;;;;3.80;3.38;;;;;;;5.04;56.08;95066.03;5050925;28;20025;-64
2022/01/08 00:17:24;;;;;;;3.88;3.33;;;;;;;5.38;55.36;95060.84;5032785;28;20040;-64
2022/01/08 00:19:50;;;;;;;3.60;3.30;;;;;;;5.06;55.92;95076.28;5032680;28;20029;-64
2022/01/08 00:22:16;;;;;;;3.50;3.30;;;;;;;5.49;55.59;95061.59;5050522;28;20075;-64
2022/01/08 00:24:41;;;;;;;5.25;3.63;;;;;;;5.41;55.12;95031.28;5032637;28;20068;-64
2022/01/08 00:27:06;;;;;;;4.20;3.80;;;;;;;5.22;54.76;95020.59;5032663;28;20025;-64
2022/01/08 00:29:32;;;;;;;3.70;3.40;;;;;;;5.46;55.86;95064.75;5050177;28;20467;-64
2022/01/08 00:31:57;;;;;;;3.45;3.15;;;;;;;5.47;54.86;95027.53;5032722;28;20025;-65
2022/01/08 00:34:22;;;;;;;4.72;3.42;;;;;;;5.50;55.10;95070.28;5050454;28;20036;-65
2022/01/08 00:36:48;;;;;;;4.05;3.65;;;;;;;5.76;55.01;95016.28;5050126;28;20021;-65
2022/01/08 00:39:13;;;;;;;4.70;4.30;;;;;;;5.96;54.12;95023.28;5049096;28;20510;-65
2022/01/08 00:41:39;;;;;;;4.75;3.65;;;;;;;6.13;53.59;95038.69;5050280;28;20390;-64
2022/01/08 00:44:04;;;;;;;4.07;3.78;;;;;;;6.16;53.44;95046.06;5050693;28;20032;-65
2022/01/08 00:46:30;;;;;;;4.43;4.00;;;;;;;6.12;53.24;95029.19;5050122;28;20071;-64
2022/01/08 00:48:55;;;;;;;4.78;4.38;;;;;;;6.35;53.62;95046.97;5031939;28;20061;-65
2022/01/08 00:51:20;;;;;;;4.80;4.30;;;;;;;6.08;53.71;94999.13;5049983;28;20501;-65
2022/01/08 00:53:46;;;;;;;4.90;4.40;;;;;;;6.03;53.05;94985.97;5049645;28;20466;-65
2022/01/08 00:56:14;;;;;;;4.65;4.07;;;;;;;6.37;53.57;95038.75;5049921;28;20025;-65
2022/01/08 00:58:40;;;;;;;5.28;4.78;;;;;;;6.27;53.67;95020.34;5049687;28;20033;-64
2022/01/08 01:01:06;;;;;;;7.10;5.07;;;;;;;5.95;53.37;94974.19;5049541;28;20037;-64
2022/01/08 01:03:31;;;;;;;5.00;4.50;;;;;;;5.91;53.41;94973.13;5050036;28;20075;-65
2022/01/08 01:05:56;;;;;;;4.70;4.30;;;;;;;5.80;53.25;94955.81;5050288;28;20060;-64
2022/01/08 01:08:22;;;;;;;6.13;5.53;;;;;;;5.74;53.46;94963.78;5030979;28;20475;-64
2022/01/08 01:10:47;;;;;;;5.85;5.28;;;;;;;5.85;53.45;95006.69;5049234;28;20065;-63
2022/01/08 01:13:13;;;;;;;6.40;5.47;;;;;;;5.92;53.89;95006.41;5049746;28;20029;-65
2022/01/08 01:15:38;;;;;;;6.95;6.15;;;;;;;5.83;53.38;94989.56;5032172;28;20025;-64
2022/01/08 01:18:04;;;;;;;6.85;6.15;;;;;;;5.70;53.70;94986.50;5031745;28;20056;-63
2022/01/08 01:20:29;;;;;;;8.93;5.78;;;;;;;5.71;53.35;94995.19;5031743;28;20527;-62
2022/01/08 01:23:11;;;;;;;7.00;6.05;;;;;;;5.51;53.62;94958.41;5031604;28;20086;-62
2022/01/08 01:25:47;;;;;;;6.80;5.90;;;;;;;5.36;53.59;94943.50;5049719;28;20017;-65
2022/01/08 01:41:46;;;;;;;6.50;5.30;;;;;;;5.07;54.52;94943.44;5018559;28;20033;-62
2022/01/08 01:47:05;;;;;;;9.88;6.32;;;;;;;5.05;54.78;94948.97;5049221;28;20037;-62
2022/01/08 01:49:32;;;;;;;7.85;5.70;;;;;;;5.01;54.68;94945.28;5048496;28;20100;-62
2022/01/08 01:51:59;;;;;;;8.15;6.95;;;;;;;4.86;54.76;94927.75;5049038;28;20025;-62
2022/01/08 01:54:25;;;;;;;6.43;5.47;;;;;;;4.67;54.26;94909.13;5050490;28;20025;-62
2022/01/08 01:56:50;;;;;;;6.60;5.97;;;;;;;4.75;54.57;94925.44;5048711;28;20463;-63
2022/01/08 01:59:16;;;;;;;6.57;5.78;;;;;;;4.68;54.50;94931.00;5048848;28;20032;-62
2022/01/08 02:01:41;;;;;;;6.05;5.45;;;;;;;3.83;54.82;94799.47;5031467;28;20525;-62
2022/01/08 02:04:07;;;;;;;8.75;5.88;;;;;;;4.57;54.84;94909.19;5049151;28;20036;-61
2022/01/08 02:06:32;;;;;;;5.85;5.25;;;;;;;4.49;54.91;94896.56;5031455;28;20466;-63
2022/01/08 02:08:57;;;;;;;8.40;5.53;;;;;;;4.26;55.29;94865.63;5047974;28;20021;-63
2022/01/08 02:11:23;;;;;;;6.90;6.03;;;;;;;4.47;55.12;94900.56;5049214;28;20383;-63
2022/01/08 02:13:48;;;;;;;8.68;6.13;;;;;;;3.81;55.12;94807.66;5049108;28;20021;-62
2022/01/08 02:16:17;;;;;;;6.30;5.65;;;;;;;4.49;55.22;94912.38;5049246;28;20104;-62
2022/01/08 02:18:44;;;;;;;7.15;6.05;;;;;;;4.28;55.09;94882.72;5048915;28;20056;-62
2022/01/08 02:21:10;;;;;;;6.55;5.85;;;;;;;4.22;55.30;94864.59;5030879;28;20395;-62
2022/01/08 02:23:36;;;;;;;6.05;5.50;;;;;;;4.15;55.27;94849.88;5030619;28;20024;-62
2022/01/08 02:26:06;;;;;;;6.32;5.72;;;;;;;4.25;55.13;94861.41;5048879;28;20502;-62
2022/01/08 02:28:31;;;;;;;6.50;5.30;;;;;;;4.42;55.03;94881.09;5049031;28;20413;-62
2022/01/08 02:30:57;;;;;;;6.88;5.03;;;;;;;4.21;55.32;94861.19;5048737;28;20032;-62
2022/01/08 02:33:29;;;;;;;6.40;5.13;;;;;;;4.41;55.51;94886.63;5049198;28;20021;-62
2022/01/08 02:35:56;;;;;;;7.25;5.68;;;;;;;4.38;55.59;94885.31;5048975;28;20021;-62
2022/01/08 02:38:23;;;;;;;6.25;5.30;;;;;;;3.44;55.19;94739.66;5048269;28;20036;-63
2022/01/08 02:40:56;;;;;;;6.32;5.35;;;;;;;4.33;55.50;94869.53;5048079;28;20021;-63
2022/01/08 02:43:23;;;;;;;5.32;4.80;;;;;;;4.31;55.77;94863.75;5048848;28;20033;-62
2022/01/08 02:45:49;;;;;;;6.45;5.85;;;;;;;3.95;55.56;94810.50;5049206;28;20459;-62
2022/01/08 02:48:14;;;;;;;6.20;5.13;;;;;;;4.09;55.69;94818.56;5048575;28;20025;-63
2022/01/08 02:50:39;;;;;;;6.03;5.32;;;;;;;4.07;55.52;94832.00;5048401;28;20017;-62
2022/01/08 02:53:05;;;;;;;6.20;5.60;;;;;;;4.31;55.50;94852.44;5048423;28;20025;-63
2022/01/08 02:55:30;;;;;;;6.93;6.07;;;;;;;4.15;55.83;94852.50;5048494;28;20100;-63
2022/01/08 02:57:56;;;;;;;9.95;6.15;;;;;;;3.50;56.05;94746.47;5030260;28;20124;-62
2022/01/08 03:00:21;;;;;;;9.07;6.22;;;;;;;3.98;55.68;94799.41;5048568;28;20029;-62
2022/01/08 03:02:50;;;;;;;7.13;6.20;;;;;;;4.21;55.76;94834.84;5051427;28;20020;-62
2022/01/08 03:05:16;;;;;;;7.72;5.90;;;;;;;4.26;55.69;94834.03;5034347;28;20021;-63
2022/01/08 03:07:45;;;;;;;8.00;6.30;;;;;;;4.25;55.47;94827.19;5051342;28;20029;-63
2022/01/08 03:10:13;;;;;;;8.15;6.10;;;;;;;4.24;55.53;94820.34;5045907;28;20025;-62
2022/01/08 03:12:41;;;;;;;6.95;5.65;;;;;;;4.22;55.29;94823.25;5052085;28;20178;-63
2022/01/08 03:15:09;;;;;;;6.15;5.55;;;;;;;3.99;55.49;94773.88;5052288;28;20053;-63
2022/01/08 03:17:35;;;;;;;7.63;6.10;;;;;;;3.98;55.88;94782.84;5051799;28;20037;-63
2022/01/08 03:20:05;;;;;;;6.95;5.68;;;;;;;4.04;55.61;94787.78;5033332;28;20390;-62
2022/01/08 03:22:31;;;;;;;6.68;5.65;;;;;;;4.06;55.59;94779.66;5051002;28;20072;-63
2022/01/08 03:24:57;;;;;;;9.77;6.57;;;;;;;4.18;55.40;94807.19;5051398;28;20033;-62
2022/01/08 03:27:22;;;;;;;6.88;5.93;;;;;;;3.69;55.17;94736.16;5051429;28;20044;-62
2022/01/08 03:29:47;;;;;;;8.65;7.30;;;;;;;4.13;55.19;94803.81;5051468;28;20021;-62
2022/01/08 03:32:13;;;;;;;6.43;5.82;;;;;;;3.98;55.45;94786.25;5051661;28;20226;-62
2022/01/08 03:34:38;;;;;;;7.88;5.97;;;;;;;4.01;55.64;94790.19;5051834;28;20025;-62
2022/01/08 03:37:04;;;;;;;6.50;5.60;;;;;;;3.67;55.66;94734.84;5051174;28;20120;-62
2022/01/08 03:39:30;;;;;;;9.93;5.80;;;;;;;4.05;55.53;94778.88;5050895;28;20036;-62
2022/01/08 03:41:55;;;;;;;8.32;6.00;;;;;;;3.94;55.75;94761.53;5049675;28;20032;-62
2022/01/08 03:44:21;;;;;;;6.10;5.50;;;;;;;4.03;55.71;94757.28;5033697;28;20538;-62
2022/01/08 03:46:46;;;;;;;6.63;5.97;;;;;;;4.18;55.31;94767.72;5051478;28;20094;-62
2022/01/08 03:49:23;;;;;;;6.28;5.18;;;;;;;4.24;55.09;94773.75;5033019;28;20021;-62
2022/01/08 03:51:49;;;;;;;5.63;5.13;;;;;;;4.32;55.41;94764.50;5051448;28;20028;-63
2022/01/08 03:54:15;;;;;;;5.80;5.20;;;;;;;4.38;55.36;94760.75;5052485;28;20494;-62
2022/01/08 03:56:40;;;;;;;4.93;4.45;;;;;;;3.35;55.38;94615.09;5051147;28;20024;-62
2022/01/08 03:59:06;;;;;;;4.75;4.35;;;;;;;4.48;55.16;94765.97;5050660;28;20060;-62
2022/01/08 04:01:31;;;;;;;4.60;4.20;;;;;;;4.56;54.97;94754.84;5051100;28;20386;-61
2022/01/08 04:03:57;;;;;;;5.70;4.47;;;;;;;3.80;55.19;94637.72;5051097;28;20028;-64
2022/01/08 04:06:23;;;;;;;4.25;3.70;;;;;;;3.88;55.00;94645.00;5051233;28;20113;-61
2022/01/08 04:08:55;;;;;;;4.00;3.70;;;;;;;4.30;54.81;94693.69;5050462;28;20467;-61
2022/01/08 04:11:21;;;;;;;4.28;3.88;;;;;;;4.42;54.52;94712.53;5050798;28;20025;-61
2022/01/08 04:13:46;;;;;;;3.92;3.50;;;;;;;4.56;54.47;94722.47;5050184;28;20533;-61
2022/01/08 04:16:16;;;;;;;4.07;3.40;;;;;;;4.51;54.36;94710.13;5050741;28;20029;-64
2022/01/08 04:18:41;;;;;;;4.05;3.28;;;;;;;3.60;54.21;94569.44;5050520;28;20025;-61
2022/01/08 04:21:43;;;;;;;3.53;3.22;;;;;;;4.59;54.46;94714.78;5050477;28;20028;-64
2022/01/08 04:23:57;;;;;;;3.88;3.38;;;;;;;4.78;54.44;94728.06;5050105;28;20534;-63
2022/01/08 04:26:24;;;;;;;3.55;3.13;;;;;;;4.61;54.01;94701.34;5050632;28;20036;-61
2022/01/08 04:28:52;;;;;;;3.40;3.10;;;;;;;4.70;54.46;94682.00;5032729;28;20029;-61
2022/01/08 04:31:18;;;;;;;4.05;3.60;;;;;;;5.03;54.31;94713.88;5032414;28;20021;-62
2022/01/08 04:33:43;;;;;;;3.03;2.72;;;;;;;5.05;54.12;94708.31;5050638;28;20056;-63
2022/01/08 04:36:09;;;;;;;3.78;2.85;;;;;;;5.04;53.46;94712.78;5050621;28;20031;-63
2022/01/08 04:38:34;;;;;;;2.75;2.45;;;;;;;4.72;53.97;94657.25;5050116;28;20087;-63
2022/01/08 04:41:00;;;;;;;3.30;2.78;;;;;;;5.14;53.82;94701.34;5049639;28;20121;-62
2022/01/08 04:43:25;;;;;;;2.33;2.13;;;;;;;5.20;53.41;94703.66;5050434;28;20067;-63
2022/01/08 04:45:51;;;;;;;2.40;2.20;;;;;;;4.88;53.60;94635.72;5050220;28;20028;-62
2022/01/08 04:48:18;;;;;;;2.47;2.28;;;;;;;5.11;53.55;94638.63;5050093;28;20119;-63
2022/01/08 04:50:44;;;;;;;2.20;2.00;;;;;;;5.63;53.01;94714.25;5049746;28;20029;-63
2022/01/08 04:53:10;;;;;;;2.13;1.85;;;;;;;5.77;53.06;94738.09;5050067;28;20032;-64
2022/01/08 04:55:36;;;;;;;4.72;1.85;;;;;;;5.76;52.58;94718.03;5050072;28;20020;-63
2022/01/08 04:58:02;;;;;;;2.28;1.85;;;;;;;5.55;51.79;94672.66;5049965;28;20461;-62
2022/01/08 05:00:27;;;;;;;1.80;1.70;;;;;;;5.72;51.92;94709.91;5049800;28;20096;-62
2022/01/08 05:02:53;;;;;;;1.92;1.73;;;;;;;5.38;51.92;94706.66;5032229;28;20079;-62
2022/01/08 05:05:18;;;;;;;1.33;1.20;;;;;;;4.23;53.85;94774.03;5049963;28;20474;-62
2022/01/08 05:07:43;;;;;;;1.20;0.70;;;;;;;4.20;55.42;94777.19;5049870;28;20530;-62
2022/01/08 05:10:09;;;;;;;1.48;0.80;;;;;;;5.01;53.87;94758.16;5049155;28;20036;-62
2022/01/08 05:12:35;;;;;;;0.98;0.88;;;;;;;5.59;53.38;94766.00;5031724;28;20474;-64
2022/01/08 05:15:02;;;;;;;0.60;0.50;;;;;;;5.43;53.42;94717.13;5050239;28;20036;-63
2022/01/08 05:17:35;;;;;;;0.65;0.65;;;;;;;5.99;53.39;94753.44;5049448;28;20057;-63
2022/01/08 05:20:07;;;;;;;0.82;0.80;;;;;;;5.58;53.36;94640.44;5049440;28;20495;-65
2022/01/08 05:25:08;;;;;;;0.90;0.82;;;;;;;6.81;52.07;94747.75;5049491;28;20033;-63
2022/01/08 05:27:33;;;;;;;3.20;1.00;;;;;;;6.74;52.23;94697.09;5031281;28;20060;-63
2022/01/08 05:29:59;;;;;;;104.07;4.97;;;;;;;7.17;51.57;94747.94;5031465;28;20438;-64
2022/01/08 05:32:24;;;;;;;8.23;1.27;;;;;;;6.89;51.37;94675.69;5049652;28;20085;-63
2022/01/08 05:34:51;;;;;;;1.92;0.90;;;;;;;7.35;50.70;94733.06;5049684;28;20060;-64
2022/01/08 05:37:18;;;;;;;5.97;1.10;;;;;;;7.07;50.59;94692.56;5031466;28;20036;-63
2022/01/08 05:39:45;;;;;;;8.95;0.90;;;;;;;7.40;50.81;94729.53;5048597;28;20060;-63
2022/01/08 05:42:11;;;;;;;1.52;0.93;;;;;;;7.47;50.38;94722.78;5049470;28;20029;-62
2022/01/08 05:44:36;;;;;;;0.85;0.50;;;;;;;7.50;49.72;94727.47;5031774;28;20032;-63
2022/01/08 05:47:02;;;;;;;0.70;0.70;;;;;;;7.47;49.55;94728.09;5049679;28;20593;-64
2022/01/08 05:49:27;;;;;;;1.02;0.90;;;;;;;7.33;49.58;94708.75;5048827;28;20032;-64
2022/01/08 05:51:53;;;;;;;1.58;0.65;;;;;;;7.24;49.73;94706.00;5031400;28;20112;-63
2022/01/08 05:54:18;;;;;;;1.73;0.65;;;;;;;7.35;49.88;94726.97;5032758;28;20036;-65
2022/01/08 05:56:43;;;;;;;1.35;1.00;;;;;;;7.44;49.93;94746.41;5030946;28;20680;-64
2022/01/08 05:59:09;;;;;;;8.20;1.00;;;;;;;7.35;50.60;94719.03;5048732;28;20103;-63
2022/01/08 06:01:35;;;;;;;3.40;0.80;;;;;;;7.43;49.45;94732.38;5049510;28;20108;-63
2022/01/08 06:04:04;;;;;;;1.25;0.60;;;;;;;7.28;50.33;94744.03;5049704;28;20626;-63
2022/01/08 06:06:29;;;;;;;1.35;0.60;;;;;;;7.42;50.37;94745.88;5049481;28;20086;-63
2022/01/08 06:08:55;;;;;;;0.75;0.73;;;;;;;7.32;51.38;94703.75;5048177;28;20025;-63
2022/01/08 06:11:21;;;;;;;0.50;0.40;;;;;;;7.57;50.54;94737.66;5049153;28;20486;-63
2022/01/08 06:13:46;;;;;;;0.85;0.80;;;;;;;7.59;50.60;94700.34;5049112;28;20068;-63
2022/01/08 06:16:11;;;;;;;0.73;0.47;;;;;;;7.55;50.44;94686.91;5049282;28;20055;-63
2022/01/08 06:18:38;;;;;;;0.77;0.50;;;;;;;7.67;50.09;94708.34;5048963;28;20493;-63
2022/01/08 06:21:05;;;;;;;1.70;0.50;;;;;;;7.81;49.88;94727.66;5030776;28;20031;-65
2022/01/08 06:23:30;;;;;;;1.70;0.68;;;;;;;7.78;50.19;94719.53;5049326;28;20601;-64
2022/01/08 06:25:56;;;;;;;3.00;0.60;;;;;;;7.54;49.54;94669.47;5048502;28;20032;-64
2022/01/08 06:28:21;;;;;;;2.03;0.70;;;;;;;7.84;49.18;94730.81;5030712;28;20048;-63
2022/01/08 06:30:47;;;;;;;0.40;0.40;;;;;;;7.40;49.32;94658.88;5048380;28;20555;-63
2022/01/08 06:33:14;;;;;;;0.82;0.50;;;;;;;7.84;48.97;94736.88;5031110;28;20028;-63
2022/01/08 06:35:39;;;;;;;2.03;0.60;;;;;;;7.12;49.00;94636.16;5049079;28;20025;-63
2022/01/08 06:38:04;;;;;;;0.55;0.55;;;;;;;7.74;48.41;94719.34;5052135;28;20636;-64
2022/01/08 06:40:30;;;;;;;0.93;0.73;;;;;;;7.73;48.44;94728.38;5051796;28;20043;-63
2022/01/08 06:42:55;;;;;;;1.10;0.50;;;;;;;7.37;48.53;94678.00;5034439;28;20025;-63
2022/01/08 06:45:20;;;;;;;0.80;0.50;;;;;;;7.04;48.24;94661.41;5052506;28;20459;-63
2022/01/08 06:47:46;;;;;;;1.77;0.73;;;;;;;7.49;48.91;94733.06;5052528;28;20418;-62
2022/01/08 06:50:12;;;;;;;2.25;1.08;;;;;;;7.00;48.22;94663.84;5052555;28;20404;-63
2022/01/08 06:52:38;;;;;;;2.67;1.20;;;;;;;7.25;48.78;94683.75;5052579;28;20024;-63
2022/01/08 06:55:04;;;;;;;0.93;0.60;;;;;;;7.48;48.91;94728.88;5051874;28;20108;-63
2022/01/08 06:57:29;;;;;;;0.77;0.55;;;;;;;6.42;50.37;94708.44;5051943;28;20029;-63
2022/01/08 06:59:54;;;;;;;0.55;0.30;;;;;;;6.74;49.86;94734.88;5052041;28;20020;-63
2022/01/08 07:02:20;;;;;;;1.85;0.40;;;;;;;6.52;49.97;94692.44;5052386;28;20067;-62
2022/01/08 07:04:45;;;;;;;0.80;0.35;;;;;;;6.74;50.21;94720.88;5052851;28;20032;-63
2022/01/08 07:07:11;;;;;;;0.75;0.40;;;;;;;6.42;50.74;94732.22;5034289;28;20051;-63
2022/01/08 07:09:36;;;;;;;0.77;0.50;;;;;;;6.30;50.62;94727.38;5051178;28;20025;-63
2022/01/08 07:12:02;;;;;;;0.65;0.60;;;;;;;6.27;50.52;94722.66;5033931;28;20059;-63
2022/01/08 07:14:27;;;;;;;0.30;0.30;;;;;;;5.15;52.22;94666.78;5052250;28;20029;-63
2022/01/08 07:16:54;;;;;;;0.30;0.30;;;;;;;4.99;54.26;94735.78;5051994;28;20025;-64
2022/01/08 07:19:20;;;;;;;0.50;0.40;;;;;;;5.51;53.20;94748.16;5051477;28;20037;-63
2022/01/08 07:21:45;;;;;;;0.47;0.47;;;;;;;5.78;52.77;94736.22;5034197;28;20689;-63
2022/01/08 07:24:11;;;;;;;0.68;0.40;;;;;;;5.74;53.27;94765.06;5033690;28;20025;-66
2022/01/08 07:26:36;;;;;;;1.15;0.52;;;;;;;5.65;52.75;94737.72;5051696;28;20045;-64
2022/01/08 07:29:02;;;;;;;1.00;0.60;;;;;;;5.88;53.57;94780.97;5033225;28;20087;-66
2022/01/08 07:31:28;;;;;;;2.17;1.10;;;;;;;5.96;58.03;94775.09;5034203;28;20064;-63
2022/01/08 07:33:53;;;;;;;1.40;0.55;;;;;;;6.37;57.60;94772.72;5051859;28;20655;-64
2022/01/08 07:36:19;;;;;;;1.98;0.63;;;;;;;5.95;57.00;94747.16;5051799;28;20024;-64
2022/01/08 07:38:45;;;;;;;2.08;0.98;;;;;;;6.46;57.00;94778.16;5051562;28;20546;-63
2022/01/08 07:41:10;;;;;;;1.33;0.70;;;;;;;6.48;57.02;94770.72;5050870;28;20152;-63
2022/01/08 07:43:36;;;;;;;1.98;0.60;;;;;;;6.91;57.42;94766.09;5051530;28;20033;-63
2022/01/08 07:46:01;;;;;;;0.80;0.47;;;;;;;6.90;55.38;94769.00;5051572;28;20072;-63
2022/01/08 07:48:26;;;;;;;1.33;0.40;;;;;;;6.44;55.58;94761.78;5050199;28;20021;-63
2022/01/08 07:50:52;;;;;;;3.17;0.40;;;;;;;5.89;57.25;94780.72;5033431;28;20032;-62
2022/01/08 07:53:18;;;;;;;0.95;0.40;;;;;;;6.28;56.99;94768.34;5051655;28;20493;-64
2022/01/08 07:55:45;;;;;;;0.40;0.30;;;;;;;6.69;56.14;94774.63;5050590;28;20506;-64
2022/01/08 07:58:11;;;;;;;0.70;0.70;;;;;;;5.99;57.92;94764.00;5033135;28;20317;-63
2022/01/08 08:00:36;;;;;;;1.85;0.60;;;;;;;6.06;59.02;94768.91;5050846;28;20040;-65
2022/01/08 08:03:01;;;;;;;1.05;0.60;;;;;;;6.20;58.63;94770.56;5051182;28;20021;-65
2022/01/08 08:05:27;;;;;;;1.27;0.50;;;;;;;6.02;59.96;94796.94;5051164;28;20029;-63
2022/01/08 08:07:54;;;;;;;1.50;0.85;;;;;;;6.44;57.70;94788.97;5032921;28;20545;-64
2022/01/08 08:10:22;;;;;;;1.92;0.70;;;;;;;6.95;58.02;94795.38;5050236;28;20043;-65
2022/01/08 08:12:47;;;;;;;1.00;0.55;;;;;;;6.70;56.78;94760.31;5050696;28;20545;-64
2022/01/08 08:15:15;;;;;;;2.42;0.60;;;;;;;6.21;58.65;94808.34;5050828;28;20127;-62
2022/01/08 08:17:41;;;;;;;1.00;0.40;;;;;;;6.38;57.40;94802.56;5050547;28;20095;-63
2022/01/08 08:20:07;;;;;;;0.30;0.30;;;;;;;6.63;58.07;94793.50;5050436;28;20033;-63
2022/01/08 08:22:33;;;;;;;0.93;0.85;;;;;;;6.04;57.64;94671.53;5051156;28;20533;-63
2022/01/08 08:24:58;;;;;;;0.45;0.40;;;;;;;6.43;57.37;94758.34;5050140;28;20033;-63
2022/01/08 08:27:23;;;;;;;1.23;0.60;;;;;;;7.16;56.48;94820.41;5050166;28;20394;-63
2022/01/08 08:29:49;;;;;;;8.00;1.02;;;;;;;6.70;55.54;94728.59;5050186;28;20024;-64
2022/01/08 08:32:14;;;;;;;0.52;0.50;;;;;;;5.45;58.10;94800.19;5050527;28;20029;-63
2022/01/08 08:34:39;;;;;;;1.70;0.50;;;;;;;5.83;58.92;94787.09;5050593;28;20482;-63
2022/01/08 08:37:05;;;;;;;0.88;0.50;;;;;;;5.01;59.99;94791.63;5050118;28;20017;-63
2022/01/08 08:39:31;;;;;;;0.38;0.38;;;;;;;4.93;60.07;94769.31;5031486;28;20124;-63
2022/01/08 08:41:56;;;;;;;0.80;0.60;;;;;;;5.00;60.70;94782.94;5032157;28;20031;-63
2022/01/08 08:44:22;;;;;;;0.85;0.20;;;;;;;3.44;65.90;94729.16;5050450;28;20417;-63
2022/01/08 08:46:47;;;;;;;0.38;0.38;;;;;;;5.02;63.08;94801.13;5032539;28;20773;-63
2022/01/08 08:49:13;;;;;;;0.85;0.40;;;;;;;4.44;64.01;94776.25;5049804;28;20052;-63
2022/01/08 08:51:38;;;;;;;0.70;0.50;;;;;;;5.02;61.81;94783.47;5050204;28;20114;-63
2022/01/08 08:54:04;;;;;;;0.20;0.20;;;;;;;4.64;61.07;94775.31;5050248;28;20029;-63
2022/01/08 08:56:29;;;;;;;0.55;0.30;;;;;;;5.37;60.68;94826.38;5049391;28;20111;-63
2022/01/08 08:58:55;;;;;;;0.30;0.30;;;;;;;5.46;60.78;94867.69;5047614;28;20467;-63
2022/01/08 09:01:21;;;;;;;1.00;0.50;;;;;;;4.83;60.96;94816.81;5050087;28;20036;-63
2022/01/08 09:03:47;;;;;;;0.50;0.40;;;;;;;4.68;61.98;94852.75;5050129;28;20036;-63
2022/01/08 09:06:12;;;;;;;1.10;0.57;;;;;;;4.94;61.00;94869.19;5032149;28;20021;-63
2022/01/08 09:08:38;;;;;;;0.30;0.30;;;;;;;4.15;64.86;94893.84;5031841;28;20040;-63
2022/01/08 09:11:06;;;;;;;0.30;0.30;;;;;;;3.71;67.46;94922.63;5049079;28;20024;-63
2022/01/08 09:13:31;;;;;;;1.95;0.40;;;;;;;3.94;65.25;94879.16;5049840;28;20025;-63
2022/01/08 09:15:57;;;;;;;0.52;0.25;;;;;;;3.34;65.68;94894.81;5049854;28;20029;-63
2022/01/08 09:18:22;;;;;;;1.15;0.50;;;;;;;3.52;65.95;94909.22;5044362;23;20037;-64
2022/01/08 09:20:48;;;;;;;0.40;0.40;;;;;;;3.68;64.24;94934.47;5049411;28;20017;-67
2022/01/08 09:23:14;;;;;;;2.10;0.70;;;;;;;4.07;63.75;94921.50;5049847;28;20082;-67
2022/01/08 09:25:39;;;;;;;1.45;0.40;;;;;;;3.73;63.22;94925.78;5049482;28;20037;-65
2022/01/08 09:28:05;;;;;;;1.00;0.47;;;;;;;3.99;62.46;94940.44;5049375;28;20021;-63
2022/01/08 09:30:30;;;;;;;0.60;0.20;;;;;;;4.09;60.89;94924.63;5031258;28;20029;-63
2022/01/08 09:32:55;;;;;;;2.15;0.35;;;;;;;3.78;62.32;94923.13;5049954;28;20028;-64
2022/01/08 09:35:22;;;;;;;0.20;0.20;;;;;;;4.18;61.70;94957.25;5032040;28;20024;-70
2022/01/08 09:37:49;;;;;;;0.60;0.22;;;;;;;3.85;61.99;94949.97;5031668;28;20032;-63
2022/01/08 09:40:16;;;;;;;0.43;0.30;;;;;;;3.83;61.99;94973.13;5048991;28;20020;-66
2022/01/08 09:42:43;;;;;;;0.20;0.20;;;;;;;3.76;62.38;94962.09;5031731;28;20017;-67
2022/01/08 09:45:09;;;;;;;0.38;0.38;;;;;;;3.29;62.03;94987.59;5032240;28;20060;-66
2022/01/08 09:47:35;;;;;;;0.80;0.38;;;;;;;3.38;62.25;94980.78;5032118;28;20063;-63
2022/01/08 09:50:01;;;;;;;0.30;0.30;;;;;;;3.36;61.21;94998.63;5049159;28;20056;-65
2022/01/08 09:52:29;;;;;;;0.40;0.40;;;;;;;3.47;60.84;94975.75;5048008;28;20067;-65
2022/01/08 09:54:55;;;;;;;0.75;0.35;;;;;;;3.96;60.14;94991.00;5049813;28;20452;-66
2022/01/08 09:57:20;;;;;;;0.38;0.30;;;;;;;3.61;59.77;94945.25;5031688;28;20124;-66
2022/01/08 09:59:46;;;;;;;0.50;0.50;;;;;;;3.29;60.46;95013.09;5030821;28;20490;-68
2022/01/08 10:02:12;;;;;;;0.95;0.38;;;;;;;4.00;59.80;94997.31;5049371;28;20029;-67
2022/01/08 10:04:38;;;;;;;0.45;0.30;;;;;;;3.78;60.14;95020.47;5049520;28;20163;-66
2022/01/08 10:07:14;;;;;;;0.77;0.50;;;;;;;3.82;59.41;95009.16;5031984;28;20040;-65
2022/01/08 10:09:56;;;;;;;0.40;0.40;;;;;;;3.56;59.69;95023.38;5030867;28;20119;-66
2022/01/08 10:12:35;;;;;;;1.05;0.45;;;;;;;3.90;59.05;95015.75;5030214;28;20467;-69
2022/01/08 10:17:45;;;;;;;1.75;0.50;;;;;;;3.77;59.25;95021.53;5053097;28;20047;-64
2022/01/08 10:20:10;;;;;;;0.60;0.40;;;;;;;3.42;60.27;95051.22;5034962;28;20063;-67
2022/01/08 10:22:37;;;;;;;0.30;0.30;;;;;;;3.88;58.56;95038.88;5053373;28;20045;-72
2022/01/08 10:25:10;;;;;;;1.02;0.32;;;;;;;3.81;59.85;95033.91;5035095;28;20033;-69
2022/01/08 10:27:36;;;;;;;1.50;0.70;;;;;;;3.98;59.00;95033.63;5052842;28;20033;-64
2022/01/08 10:30:01;;;;;;;1.10;0.60;;;;;;;4.38;57.67;95045.16;5034925;28;20497;-64
2022/01/08 10:32:27;;;;;;;1.38;0.80;;;;;;;4.50;57.93;95040.38;5053497;28;20017;-66
2022/01/08 10:34:52;;;;;;;0.68;0.55;;;;;;;3.87;58.80;95063.63;5052967;28;20681;-64
2022/01/08 10:37:18;;;;;;;1.45;0.80;;;;;;;4.07;58.40;95065.47;5052837;28;20056;-66
2022/01/08 10:39:54;;;;;;;0.77;0.40;;;;;;;3.61;60.45;95071.50;5052890;28;20029;-66
2022/01/08 10:42:20;;;;;;;0.50;0.50;;;;;;;3.71;59.38;95085.72;5047073;28;20037;-64
2022/01/08 10:44:48;;;;;;;0.50;0.50;;;;;;;3.59;59.86;95084.13;5035418;28;20437;-64
2022/01/08 10:47:21;;;;;;;0.50;0.43;;;;;;;3.62;59.08;95094.13;5053491;28;20025;-67
2022/01/08 10:50:06;;;;;;;2.13;0.50;;;;;;;3.83;58.87;95073.88;5052679;28;20430;-66
2022/01/08 10:53:03;;;;;;;0.88;0.82;;;;;;;3.98;58.14;95070.47;5052791;28;20056;-66
2022/01/08 10:55:32;;;;;;;0.60;0.60;;;;;;;4.00;58.37;95086.00;5029325;28;20383;-66
2022/01/08 10:57:58;;;;;;;0.80;0.75;;;;;;;3.89;58.62;95098.38;5033183;28;20032;-68
2022/01/08 11:00:33;;;;;;;3.72;0.60;;;;;;;4.08;58.64;95070.47;5034502;28;20021;-70
2022/01/08 11:02:58;;;;;;;1.15;0.75;;;;;;;4.12;57.21;95062.84;5052690;28;20049;-67
2022/01/08 11:05:24;;;;;;;0.98;0.73;;;;;;;3.81;58.38;95083.09;5034860;28;20057;-68
2022/01/08 11:07:49;;;;;;;1.50;0.70;;;;;;;4.40;56.70;95093.88;5051261;28;20438;-68
2022/01/08 11:10:23;;;;;;;1.38;0.80;;;;;;;4.47;56.89;95088.34;5051968;28;20043;-74
2022/01/08 11:12:51;;;;;;;0.88;0.82;;;;;;;4.70;55.46;95081.69;5034345;28;20021;-68
2022/01/08 11:17:56;;;;;;;1.00;0.73;;;;;;;4.15;55.99;95105.22;5052097;28;20087;-68
2022/01/08 11:20:25;;;;;;;0.70;0.70;;;;;;;4.03;56.69;95109.94;5051569;28;20031;-70
2022/01/08 11:22:52;;;;;;;2.53;1.40;;;;;;;4.44;55.72;95094.91;5051425;28;20021;-69
2022/01/08 11:25:23;;;;;;;1.40;1.30;;;;;;;4.61;55.91;95099.13;5051966;28;20068;-70
2022/01/08 11:28:07;;;;;;;1.33;1.17;;;;;;;4.91;55.03;95103.50;5033688;28;20017;-68
2022/01/08 11:30:35;;;;;;;1.75;0.90;;;;;;;4.55;54.31;95116.75;5050337;28;20024;-68
2022/01/08 11:33:07;;;;;;;1.48;1.38;;;;;;;4.60;54.86;95087.75;5051972;28;20017;-67
2022/01/08 11:35:35;;;;;;;0.90;0.85;;;;;;;4.22;55.60;95096.25;5034258;28;20025;-66
2022/01/08 11:38:04;;;;;;;1.90;1.05;;;;;;;4.42;54.74;95086.50;5051542;28;20120;-67
2022/01/08 11:40:31;;;;;;;1.23;1.17;;;;;;;4.61;54.52;95089.38;5049810;28;20025;-70
2022/01/08 11:43:04;;;;;;;2.13;1.73;;;;;;;5.26;53.12;95094.66;5033718;28;20088;-69
2022/01/08 11:45:36;;;;;;;1.90;1.80;;;;;;;5.71;51.92;95106.81;5051830;28;20630;-69
2022/01/08 11:48:04;;;;;;;;;;;;;;;5.83;51.53;95100.41;5052381;28;20021;-70
2022/01/08 11:50:31;;;;;;;1.40;1.23;;;;;;;5.02;53.16;95096.38;5051162;28;19939;-68
2022/01/08 11:53:18;;;;;;;1.35;1.25;;;;;;;4.55;54.26;95111.47;5033821;28;20120;-69
2022/01/08 11:55:50;;;;;;;1.35;1.05;;;;;;;4.80;54.68;95107.22;5032709;28;20032;-66
2022/01/08 11:58:27;;;;;;;0.88;0.88;;;;;;;3.97;56.28;95113.63;5033117;28;20024;-67
2022/01/08 12:00:58;;;;;;;1.77;1.15;;;;;;;4.45;55.20;95111.50;5051217;28;20033;-68
2022/01/08 12:03:39;;;;;;;1.08;0.95;;;;;;;4.56;55.17;95099.91;5051428;28;20120;-68